Data for 11/03/2014

Time Sea-Level Adjusted Pressure Absolute Pressure Temperature Relative Humidity Dew Point   
(mb) (inHg) (mb) (inHg) (C) (F) (%) (C) (F)
00:05 1019 30.09 848 25.04 1.2 34.1 52 -7.6 18.4
00:10 1019 30.09 848 25.04 1.1 34 52 -7.7 18.2
00:15 1019 30.09 848 25.04 1 33.8 52 -7.8 18
00:20 1019 30.09 848 25.04 0.9 33.6 53 -7.6 18.3
00:25 1019 30.09 848 25.04 0.7 33.3 54 -7.7 18.2
00:30 1019 30.09 848 25.04 0.7 33.2 53 -7.8 17.9
00:35 1019 30.09 848 25.04 0.6 33.1 53 -7.8 17.9
00:40 1019 30.09 848 25.04 0.5 32.9 54 -7.8 17.9
00:45 1019 30.09 848 25.04 0.4 32.7 54 -7.8 17.9
00:50 1019 30.09 848 25.04 0.3 32.5 54 -8 17.7
00:55 1019 30.09 848 25.04 0.4 32.6 54 -8 17.6
01:00 1019 30.09 848 25.04 0.4 32.7 53 -8.1 17.4
01:05 1019 30.09 848 25.04 0.5 32.9 52 -8.2 17.3
01:10 1019 30.09 848 25.04 0.5 32.9 52 -8.2 17.3
01:15 1019 30.09 848 25.04 0.5 32.9 52 -8.2 17.3
01:20 1019 30.09 848 25.04 0.5 33 53 -8 17.6
01:25 1019 30.09 848 25.04 0.6 33 53 -7.9 17.8
01:30 1019 30.09 848 25.04 0.6 33.1 53 -7.8 17.9
01:35 1019 30.09 848 25.04 0.7 33.2 53 -7.9 17.7
01:40 1019 30.09 848 25.04 0.7 33.3 53 -7.8 17.9
01:45 1019 30.09 848 25.04 0.8 33.4 53 -7.9 17.8
01:50 1019 30.09 848 25.04 0.7 33.3 53 -7.9 17.8
01:55 1019 30.09 848 25.04 0.7 33.3 53 -7.8 17.9
02:00 1019 30.09 848 25.04 0.7 33.2 53 -7.9 17.8
02:05 1019 30.09 848 25.04 0.6 33.1 53 -7.9 17.9
02:10 1019 30.09 848 25.04 0.5 32.9 54 -7.8 18
02:15 1019 30.09 848 25.04 0.4 32.8 53 -7.9 17.7
02:20 1019 30.09 848 25.04 0.3 32.6 53 -8.1 17.5
02:25 1019 30.09 848 25.04 0.3 32.6 53 -8.2 17.2
02:30 1019 30.09 848 25.04 0.3 32.5 54 -8.1 17.5
02:35 1019 30.09 848 25.04 0.2 32.3 54 -8.2 17.3
02:40 1019 30.09 848 25.04 0.2 32.3 53 -8.2 17.2
02:45 1019 30.09 848 25.04 0.1 32.2 53 -8.3 17.1
02:50 1019 30.09 848 25.04 0 32.1 53 -8.4 16.9
02:55 1019 30.09 848 25.04 0 32 54 -8.3 17.1
03:00 1019 30.09 848 25.04 -0.1 31.8 54 -8.4 17
03:05 1019 30.09 848 25.04 -0.1 31.8 54 -8.3 17
03:10 1019 30.09 848 25.04 -0.1 31.9 53 -8.4 16.8
03:15 1019 30.09 848 25.04 -0 32 54 -8.3 17
03:20 1019 30.09 848 25.04 -0.2 31.7 54 -8.3 17.1
03:25 1019 30.09 849 25.07 -0.3 31.5 55 -8.3 17
03:30 1019 30.09 849 25.07 -0.3 31.4 55 -8.4 16.9
03:35 1019 30.09 849 25.07 -0.5 31.2 55 -8.4 16.9
03:40 1020 30.12 849 25.07 -0.7 30.8 56 -8.3 17
03:45 1020 30.12 849 25.07 -0.9 30.4 57 -8.4 16.9
03:50 1020 30.12 849 25.07 -0.9 30.4 56 -8.5 16.7
03:55 1020 30.12 849 25.07 -0.8 30.5 56 -8.5 16.6
04:00 1020 30.12 849 25.07 -0.8 30.6 56 -8.6 16.5
04:05 1020 30.12 849 25.07 -0.7 30.8 55 -8.6 16.5
04:10 1020 30.12 849 25.07 -0.7 30.8 55 -8.6 16.5
04:15 1020 30.12 849 25.07 -0.7 30.7 55 -8.6 16.6
04:20 1020 30.12 849 25.07 -0.9 30.4 56 -8.6 16.5
04:25 1020 30.12 849 25.07 -0.9 30.4 55 -8.8 16.2
04:30 1020 30.12 849 25.07 -0.8 30.6 55 -8.6 16.5
04:35 1020 30.12 849 25.07 -0.7 30.8 55 -8.7 16.4
04:40 1020 30.12 849 25.07 -0.7 30.8 55 -8.7 16.3
04:45 1020 30.12 849 25.07 -0.7 30.7 55 -8.6 16.6
04:50 1020 30.12 849 25.07 -1 30.3 56 -8.7 16.4
04:55 1020 30.12 849 25.07 -1 30.2 56 -8.7 16.4
05:00 1020 30.12 849 25.07 -1 30.3 56 -8.7 16.3
05:05 1020 30.12 849 25.07 -0.9 30.3 56 -8.6 16.5
05:10 1020 30.12 849 25.07 -1 30.2 56 -8.6 16.4
05:15 1020 30.12 849 25.07 -1.4 29.4 59 -8.4 16.8
05:20 1020 30.12 849 25.07 -1.8 28.8 59 -8.7 16.3
05:25 1020 30.12 849 25.07 -1.8 28.8 60 -8.6 16.5
05:30 1020 30.12 849 25.07 -2 28.4 61 -8.6 16.5
05:35 1020 30.12 849 25.07 -2.2 28 62 -8.6 16.5
05:40 1020 30.12 849 25.07 -2.2 28.1 62 -8.5 16.8
05:45 1020 30.12 849 25.07 -2.4 27.7 63 -8.5 16.6
05:50 1020 30.12 849 25.07 -2.3 27.8 62 -8.6 16.6
05:55 1020 30.12 849 25.07 -2.4 27.7 64 -8.3 17
06:00 1020 30.12 849 25.07 -2.8 27 65 -8.4 16.8
06:05 1020 30.12 849 25.07 -2.8 27 64 -8.7 16.4
06:10 1020 30.12 849 25.07 -2.5 27.6 64 -8.4 16.8
06:15 1020 30.12 850 25.1 -2.5 27.5 64 -8.5 16.8
06:20 1020 30.12 850 25.1 -2.3 27.8 61 -8.8 16.2
06:25 1020 30.12 850 25.1 -1.8 28.8 59 -8.8 16.1
06:30 1021 30.15 850 25.1 -1.4 29.5 58 -8.5 16.7
06:35 1021 30.15 850 25.1 -1.2 29.8 58 -8.5 16.7
06:40 1021 30.15 850 25.1 -1.2 29.8 58 -8.5 16.7
06:45 1021 30.15 850 25.1 -1.2 29.9 58 -8.3 17
06:50 1021 30.15 850 25.1 -1.4 29.5 59 -8.3 17.1
06:55 1021 30.15 850 25.1 -2.1 28.2 64 -8.1 17.4
07:00 1021 30.15 850 25.1 -2.7 27.2 65 -8.4 16.9
07:05 1021 30.15 850 25.1 -2.7 27.1 65 -8.4 16.9
07:10 1021 30.15 850 25.1 -2.7 27.1 65 -8.5 16.8
07:15 1021 30.15 850 25.1 -2.7 27.1 66 -8.2 17.2
07:20 1021 30.15 850 25.1 -2.8 26.9 66 -8.4 16.9
07:25 1021 30.15 850 25.1 -2.8 27 66 -8.4 17
07:30 1021 30.15 850 25.1 -2.9 26.9 66 -8.4 17
07:35 1021 30.15 850 25.1 -2.8 27 65 -8.6 16.5
07:40 1021 30.15 850 25.1 -2.5 27.6 62 -8.7 16.3
07:45 1021 30.15 850 25.1 -2.2 28.1 63 -8.3 17
07:50 1021 30.15 850 25.1 -2.3 27.8 63 -8.5 16.6
07:55 1021 30.15 850 25.1 -2.4 27.7 64 -8.3 17.1
08:00 1021 30.15 850 25.1 -2.6 27.2 65 -8.3 17
08:05 1021 30.15 850 25.1 -2.8 26.9 65 -8.6 16.6
08:10 1021 30.15 850 25.1 -2.7 27.2 64 -8.6 16.5
08:15 1021 30.15 850 25.1 -2.6 27.4 64 -8.5 16.6
08:20 1021 30.15 850 25.1 -2.5 27.5 63 -8.5 16.7
08:25 1021 30.15 851 25.13 -2.6 27.3 64 -8.4 16.8
08:30 1021 30.15 851 25.13 -2.6 27.3 64 -8.5 16.7
08:35 1022 30.18 851 25.13 -2.5 27.5 63 -8.7 16.3
08:40 1022 30.18 851 25.13 -1.9 28.5 61 -8.5 16.7
08:45 1022 30.18 851 25.13 -1.5 29.2 60 -8.4 16.9
08:50 1022 30.18 851 25.13 -1.4 29.4 60 -8.3 17
08:55 1022 30.18 851 25.13 -1.4 29.5 58 -8.7 16.4
09:00 1022 30.18 851 25.13 -1 30.3 57 -8.5 16.7
09:05 1022 30.18 851 25.13 -1.1 30 59 -8.3 17.1
09:10 1022 30.18 851 25.13 -1.3 29.6 59 -8.3 17.1
09:15 1022 30.18 851 25.13 -1.4 29.4 59 -8.4 16.9
09:20 1022 30.18 852 25.16 -1.4 29.5 59 -8.4 16.9
09:25 1022 30.18 852 25.16 -0.7 30.7 57 -8.1 17.4
09:30 1022 30.18 852 25.16 0.6 33 54 -7.8 18
09:35 1023 30.21 852 25.16 1.3 34.3 51 -7.8 17.9
09:40 1023 30.21 852 25.16 1.3 34.3 51 -7.7 18.1
09:45 1023 30.21 852 25.16 1.1 33.9 54 -7.3 18.9
09:50 1023 30.21 852 25.16 0.9 33.7 55 -7 19.4
09:55 1023 30.21 852 25.16 0.9 33.7 56 -6.9 19.6
10:00 1023 30.21 852 25.16 1 33.7 57 -6.6 20.1
10:05 1023 30.21 852 25.16 1.1 34 58 -6.4 20.5
10:10 1023 30.21 852 25.16 1.2 34.1 56 -6.6 20
10:15 1023 30.21 852 25.16 1.3 34.3 58 -6.2 20.9
10:20 1023 30.21 852 25.16 1.7 35.1 57 -6 21.2
10:25 1023 30.21 852 25.16 2 35.5 56 -5.8 21.5
10:30 1023 30.21 852 25.16 2.1 35.8 55 -5.9 21.3
10:35 1023 30.21 852 25.16 2.2 35.9 56 -5.8 21.6
10:40 1023 30.21 852 25.16 2.2 36 55 -6 21.2
10:45 1023 30.21 852 25.16 2.3 36.1 54 -6 21.2
10:50 1023 30.21 852 25.16 2.3 36.2 54 -5.9 21.4
10:55 1023 30.21 852 25.16 2.5 36.5 52 -6.4 20.5
11:00 1023 30.21 852 25.16 2.6 36.7 51 -6.6 20.2
11:05 1023 30.21 852 25.16 2.6 36.7 49 -7 19.4
11:10 1023 30.21 852 25.16 2.7 36.9 47 -7.6 18.4
11:15 1023 30.21 852 25.16 2.9 37.2 46 -7.7 18.2
11:20 1023 30.21 852 25.16 3 37.4 45 -7.8 18
11:25 1023 30.21 852 25.16 3 37.5 45 -7.8 18
11:30 1023 30.21 852 25.16 3 37.3 42 -8.7 16.3
11:35 1023 30.21 852 25.16 2.9 37.2 42 -8.8 16.1
11:40 1023 30.21 852 25.16 3 37.4 42 -8.6 16.5
11:45 1023 30.21 852 25.16 3.4 38.1 42 -8.4 17
11:50 1023 30.21 852 25.16 3.5 38.3 41 -8.6 16.5
11:55 1023 30.21 852 25.16 3.9 39 41 -8.3 17.1
12:00 1023 30.21 852 25.16 4.2 39.5 41 -8 17.6
12:05 1023 30.21 852 25.16 4.4 40 40 -8.1 17.4
12:10 1023 30.21 852 25.16 4.4 39.9 40 -8.1 17.4
12:15 1023 30.21 852 25.16 4.4 39.9 40 -8.2 17.3
12:20 1023 30.21 852 25.16 4.5 40.1 40 -7.9 17.8
12:25 1023 30.21 852 25.16 4.7 40.4 39 -8 17.5
12:30 1023 30.21 852 25.16 4.8 40.6 40 -7.9 17.9
12:35 1023 30.21 852 25.16 4.8 40.7 39 -7.9 17.7
12:40 1023 30.21 852 25.16 5.2 41.4 38 -8.1 17.5
12:45 1023 30.21 852 25.16 5.3 41.6 36 -8.4 16.9
12:50 1023 30.21 852 25.16 6 42.9 35 -8.3 17.1
12:55 1023 30.21 852 25.16 5.9 42.6 37 -7.9 17.8
13:00 1023 30.21 852 25.16 6 42.8 37 -7.6 18.4
13:05 1022 30.18 852 25.16 6.7 44 34 -8.1 17.5
13:10 1022 30.18 852 25.16 6.9 44.4 34 -7.9 17.9
13:15 1022 30.18 852 25.16 6.6 43.9 35 -7.7 18.1
13:20 1022 30.18 852 25.16 6.8 44.2 34 -7.9 17.8
13:25 1022 30.18 852 25.16 6.8 44.3 35 -7.8 18
13:30 1022 30.18 852 25.16 6.8 44.2 36 -7.4 18.7
13:35 1022 30.18 852 25.16 6.8 44.2 35 -7.6 18.3
13:40 1022 30.18 852 25.16 6.9 44.4 35 -7.5 18.6
13:45 1022 30.18 851 25.13 6.8 44.3 35 -7.6 18.3
13:50 1022 30.18 851 25.13 7.4 45.2 33 -7.8 18
13:55 1022 30.18 851 25.13 7.3 45.1 33 -7.8 18
14:00 1022 30.18 852 25.16 7.5 45.5 33 -7.7 18.1
14:05 1022 30.18 851 25.13 7.6 45.6 34 -7.4 18.6
14:10 1022 30.18 852 25.16 7.7 45.9 33 -7.5 18.5
14:15 1022 30.18 852 25.16 8 46.3 32 -7.6 18.3
14:20 1022 30.18 852 25.16 7.7 45.9 32 -7.8 18
14:25 1022 30.18 852 25.16 7.9 46.3 32 -7.7 18.2
14:30 1022 30.18 852 25.16 7.9 46.1 32 -7.8 18
14:35 1022 30.18 852 25.16 7.8 46 32 -7.8 18
14:40 1022 30.18 852 25.16 7.2 44.9 35 -7.5 18.6
14:45 1022 30.18 852 25.16 7.1 44.7 34 -7.9 17.8
14:50 1022 30.18 852 25.16 7.3 45.1 34 -7.7 18.1
14:55 1022 30.18 851 25.13 7.4 45.3 33 -7.8 17.9
15:00 1022 30.18 851 25.13 7.6 45.6 33 -7.8 17.9
15:05 1022 30.18 851 25.13 7.4 45.4 34 -7.2 19
15:10 1022 30.18 851 25.13 7.4 45.3 33 -7.7 18.2
15:15 1022 30.18 851 25.13 7.3 45.1 35 -7.1 19.1
15:20 1022 30.18 851 25.13 7 44.6 34 -7.7 18.2
15:25 1022 30.18 851 25.13 7.5 45.4 33 -7.7 18.2
15:30 1022 30.18 851 25.13 7.8 46 34 -7.2 19.1
15:35 1022 30.18 851 25.13 7.4 45.3 34 -7.4 18.7
15:40 1022 30.18 851 25.13 7.3 45.2 35 -7.3 18.9
15:45 1022 30.18 851 25.13 7.4 45.2 34 -7.5 18.5
15:50 1022 30.18 851 25.13 7.3 45.1 34 -7.5 18.5
15:55 1022 30.18 852 25.16 7.2 45 35 -7.4 18.7
16:00 1022 30.18 852 25.16 7.4 45.2 34 -7.5 18.4
16:05 1022 30.18 852 25.16 7.2 45 33 -7.8 17.9
16:10 1022 30.18 852 25.16 7.2 44.9 34 -7.7 18.1
16:15 1022 30.18 852 25.16 7.2 45 34 -7.6 18.3
16:20 1022 30.18 852 25.16 7.4 45.2 33 -7.7 18.2
16:25 1023 30.21 852 25.16 7.4 45.4 33 -7.7 18.2
16:30 1023 30.21 852 25.16 7.5 45.5 34 -7.6 18.4
16:35 1023 30.21 852 25.16 7.4 45.4 33 -7.8 18
16:40 1023 30.21 852 25.16 7.5 45.4 33 -7.8 17.9
16:45 1023 30.21 852 25.16 7.5 45.4 35 -6.8 19.7
16:50 1023 30.21 852 25.16 6.5 43.7 38 -6.8 19.7
16:55 1023 30.21 852 25.16 6.2 43.2 39 -6.8 19.8
17:00 1023 30.21 852 25.16 6.4 43.5 38 -6.9 19.5
17:05 1023 30.21 852 25.16 6.3 43.4 38 -7 19.4
17:10 1023 30.21 852 25.16 6.4 43.5 38 -7 19.4
17:15 1023 30.21 852 25.16 6.5 43.7 37 -7.2 19.1
17:20 1023 30.21 852 25.16 6.3 43.3 38 -6.9 19.6
17:25 1023 30.21 852 25.16 6.2 43.2 40 -6.5 20.2
17:30 1023 30.21 852 25.16 6.4 43.5 38 -6.7 19.9
17:35 1023 30.21 852 25.16 6.2 43.2 38 -6.9 19.6
17:40 1023 30.21 852 25.16 6.4 43.5 38 -7 19.5
17:45 1023 30.21 852 25.16 6.3 43.4 39 -6.7 20
17:50 1023 30.21 852 25.16 6.5 43.6 38 -6.7 19.9
17:55 1023 30.21 852 25.16 6.6 43.9 37 -7.2 19.1
18:00 1023 30.21 852 25.16 6.6 43.9 37 -6.9 19.6
18:05 1023 30.21 852 25.16 6.3 43.4 38 -6.8 19.7
18:10 1023 30.21 852 25.16 6.4 43.6 38 -6.9 19.7
18:15 1023 30.21 852 25.16 6.3 43.4 40 -6.4 20.5
18:20 1023 30.21 852 25.16 6 42.8 42 -5.9 21.4
18:25 1023 30.21 852 25.16 6.2 43.1 40 -6.5 20.3
18:30 1023 30.21 852 25.16 6.5 43.8 39 -6.4 20.5
18:35 1023 30.21 852 25.16 6.7 44 39 -6.2 20.8
18:40 1023 30.21 852 25.16 6.7 44.1 39 -6.3 20.7
18:45 1023 30.21 852 25.16 6.8 44.2 40 -6 21.3
18:50 1023 30.21 852 25.16 6.6 44 40 -5.9 21.4
18:55 1023 30.21 852 25.16 6.5 43.7 41 -5.7 21.7
19:00 1023 30.21 852 25.16 6.5 43.6 41 -5.7 21.7
19:05 1023 30.21 852 25.16 6.5 43.7 42 -5.6 21.9
19:10 1023 30.21 852 25.16 6.3 43.3 43 -5.4 22.3
19:15 1023 30.21 852 25.16 5.9 42.7 43 -5.6 21.9
19:20 1023 30.21 852 25.16 5.8 42.5 43 -5.8 21.6
19:25 1023 30.21 852 25.16 6.1 42.9 41 -6.1 21
19:30 1023 30.21 852 25.16 6.2 43.2 40 -6.2 20.8
19:35 1023 30.21 852 25.16 6.3 43.3 40 -6.3 20.7
19:40 1023 30.21 852 25.16 6.3 43.3 41 -6.1 21.1
19:45 1023 30.21 852 25.16 6.2 43.2 40 -6.2 20.8
19:50 1023 30.21 852 25.16 6.2 43.1 41 -6.1 21.1
19:55 1023 30.21 852 25.16 6 42.8 42 -5.9 21.3
20:00 1023 30.21 852 25.16 5.9 42.7 41 -6.3 20.7
20:05 1023 30.21 852 25.16 6 42.8 41 -6.2 20.8
20:10 1023 30.21 852 25.16 6 42.8 41 -6.1 21
20:15 1023 30.21 852 25.16 6 42.8 41 -6.3 20.7
20:20 1023 30.21 852 25.16 6.1 42.9 41 -6.3 20.6
20:25 1023 30.21 852 25.16 6.1 43 40 -6.4 20.5
20:30 1023 30.21 852 25.16 6.1 43 41 -6.2 20.8
20:35 1023 30.21 852 25.16 6.1 42.9 41 -6.2 20.8
20:40 1023 30.21 852 25.16 6.1 43 41 -6.2 20.8
20:45 1023 30.21 852 25.16 6.1 43 41 -6.3 20.7
20:50 1023 30.21 852 25.16 6.1 42.9 41 -6.1 20.9
20:55 1023 30.21 852 25.16 6 42.8 41 -6.2 20.8
21:00 1023 30.21 852 25.16 5.9 42.7 41 -6.3 20.7
21:05 1023 30.21 852 25.16 5.8 42.4 42 -6 21.1
21:10 1023 30.21 852 25.16 5.7 42.2 42 -6.1 21
21:15 1023 30.21 852 25.16 5.6 42.1 43 -6 21.1
21:20 1023 30.21 852 25.16 5.4 41.8 44 -5.9 21.4
21:25 1023 30.21 852 25.16 5.1 41.2 45 -5.7 21.7
21:30 1023 30.21 852 25.16 4.9 40.8 45 -6.1 21
21:35 1023 30.21 852 25.16 5 41 45 -6.1 21.1
21:40 1023 30.21 852 25.16 4.9 40.8 45 -6 21.2
21:45 1023 30.21 852 25.16 4.8 40.6 45 -6.3 20.7
21:50 1023 30.21 852 25.16 4.8 40.7 45 -6.1 21.1
21:55 1023 30.21 852 25.16 4.6 40.3 45 -6.2 20.8
22:00 1023 30.21 852 25.16 4.6 40.3 46 -6.2 20.9
22:05 1023 30.21 852 25.16 4.6 40.2 46 -6.2 20.9
22:10 1023 30.21 852 25.16 4.4 39.9 46 -6.1 21.1
22:15 1023 30.21 852 25.16 4.2 39.5 47 -6.1 21.1
22:20 1023 30.21 852 25.16 3.9 39 49 -6 21.3
22:25 1023 30.21 852 25.16 3.6 38.5 50 -5.9 21.4
22:30 1023 30.21 852 25.16 3.3 38 51 -5.9 21.4
22:35 1023 30.21 853 25.19 2.7 36.9 54 -5.7 21.8
22:40 1023 30.21 853 25.19 2.4 36.3 54 -5.9 21.3
22:45 1023 30.21 853 25.19 2.5 36.5 53 -6.1 21.1
22:50 1023 30.21 853 25.19 2.8 37 55 -5.4 22.2
22:55 1024 30.24 853 25.19 3.2 37.7 51 -6.1 21.1
23:00 1024 30.24 853 25.19 3.4 38.1 51 -5.7 21.7
23:05 1024 30.24 853 25.19 3.2 37.7 53 -5.6 21.9
23:10 1024 30.24 853 25.19 3.1 37.6 52 -5.9 21.4
23:15 1024 30.24 853 25.19 3.1 37.6 52 -5.9 21.4
23:20 1024 30.24 853 25.19 3.1 37.6 52 -5.9 21.4
23:25 1024 30.24 853 25.19 3.1 37.6 52 -5.9 21.5
23:30 1024 30.24 853 25.19 3.2 37.7 51 -6 21.2
23:35 1024 30.24 853 25.19 3.2 37.8 52 -5.8 21.6
23:40 1024 30.24 853 25.19 3 37.3 53 -5.7 21.7
23:45 1024 30.24 853 25.19 2.7 36.9 54 -5.7 21.7
23:50 1024 30.24 853 25.19 2.8 37 53 -5.8 21.6
23:55 1024 30.24 853 25.19 2.9 37.1 53 -5.7 21.7
24:00 1024 30.24 853 25.19 2.8 37 54 -5.7 21.7